Time;durP1;ratioP1;P1;durP2;ratioP2;P2;SDS_P1;SDS_P2;PMS_P1;PMS_P2;Temp;Humidity;BMP_temperature;BMP_pressure;BME280_temperature;BME280_humidity;BME280_pressure;Samples;Min_cycle;Max_cycle;Signal;HPM_P1;HPM_P2
2023/12/09 00:01:10;;;;;;;0.60;0.10;;;6.10;1.00;;;;;;4848371;29;20459;-76
2023/12/09 00:03:38;;;;;;;0.60;0.10;;;6.10;1.00;;;;;;4847824;29;20992;-76
2023/12/09 00:06:06;;;;;;;0.60;0.10;;;6.10;1.00;;;;;;4845410;29;20568;-76
2023/12/09 00:08:35;;;;;;;0.60;0.10;;;6.00;1.00;;;;;;4844766;29;20448;-76
2023/12/09 00:11:04;;;;;;;0.70;0.40;;;6.00;1.00;;;;;;4841798;29;20826;-76
2023/12/09 00:13:32;;;;;;;0.60;0.10;;;6.10;1.00;;;;;;4841888;29;20522;-76
2023/12/09 00:16:00;;;;;;;6.00;4.80;;;6.10;1.00;;;;;;4841502;29;20447;-76
2023/12/09 00:18:28;;;;;;;3.90;3.60;;;6.00;1.00;;;;;;4840872;29;20482;-76
2023/12/09 00:20:56;;;;;;;2.40;2.17;;;5.80;1.00;;;;;;4842125;29;20574;-76
2023/12/09 00:23:24;;;;;;;7.57;1.10;;;5.80;1.00;;;;;;4841979;29;20456;-76
2023/12/09 00:25:53;;;;;;;1.70;1.60;;;5.80;1.00;;;;;;4842772;29;20567;-76
2023/12/09 00:28:21;;;;;;;0.60;0.10;;;5.80;1.00;;;;;;4842080;29;20501;-76
2023/12/09 00:30:49;;;;;;;3.03;2.83;;;5.80;1.00;;;;;;4842403;29;20452;-76
2023/12/09 00:33:16;;;;;;;2.10;1.90;;;5.90;1.00;;;;;;4841927;29;20460;-76
2023/12/09 00:35:44;;;;;;;1.80;1.70;;;5.90;1.00;;;;;;4841051;29;20447;-76
2023/12/09 00:38:12;;;;;;;3.93;1.50;;;6.00;1.00;;;;;;4840674;29;20918;-76
2023/12/09 00:40:40;;;;;;;5.33;3.60;;;6.00;1.00;;;;;;4841879;29;20559;-76
2023/12/09 00:43:09;;;;;;;2.43;2.23;;;6.00;1.00;;;;;;4841322;29;20538;-76
2023/12/09 00:45:37;;;;;;;0.60;0.23;;;5.90;1.00;;;;;;4841461;29;20459;-76
2023/12/09 00:48:05;;;;;;;0.60;0.10;;;5.90;1.00;;;;;;4841668;29;20863;-76
2023/12/09 00:50:33;;;;;;;9.83;7.73;;;5.90;1.00;;;;;;4844823;29;20459;-74
2023/12/09 00:53:01;;;;;;;0.60;0.10;;;6.00;1.00;;;;;;4845833;29;20560;-74
2023/12/09 00:55:29;;;;;;;2.67;2.47;;;6.00;1.00;;;;;;4845093;29;20462;-74
2023/12/09 00:57:57;;;;;;;2.73;2.53;;;6.00;1.00;;;;;;4844320;29;20482;-76
2023/12/09 01:00:26;;;;;;;0.60;0.10;;;6.10;1.00;;;;;;4845328;29;20478;-74
2023/12/09 01:02:54;;;;;;;1.13;1.03;;;6.10;1.00;;;;;;4845974;29;20460;-76
2023/12/09 01:05:22;;;;;;;0.60;0.20;;;6.10;1.00;;;;;;4846439;29;20460;-76
2023/12/09 01:07:50;;;;;;;0.60;0.10;;;6.10;1.00;;;;;;4845230;29;20495;-74
2023/12/09 01:10:18;;;;;;;0.60;0.10;;;6.10;1.00;;;;;;4845011;29;20458;-76
2023/12/09 01:12:46;;;;;;;0.60;0.10;;;6.10;1.00;;;;;;4841863;29;20567;-76
2023/12/09 01:15:14;;;;;;;0.60;0.10;;;6.20;1.00;;;;;;4844809;29;20464;-74
2023/12/09 01:17:43;;;;;;;0.70;0.20;;;6.20;1.00;;;;;;4844656;29;20532;-75
2023/12/09 01:20:12;;;;;;;0.60;0.10;;;6.20;1.00;;;;;;4844821;29;20460;-74
2023/12/09 01:22:40;;;;;;;1.37;1.27;;;6.20;1.00;;;;;;4837714;29;20462;-75
2023/12/09 01:25:09;;;;;;;0.60;0.10;;;6.30;1.00;;;;;;4844572;29;20494;-75
2023/12/09 01:27:37;;;;;;;0.60;0.10;;;6.30;1.00;;;;;;4844249;29;20499;-75
2023/12/09 01:30:06;;;;;;;0.60;0.20;;;6.30;1.00;;;;;;4841840;29;20474;-74
2023/12/09 01:32:34;;;;;;;0.60;0.10;;;6.30;1.00;;;;;;4844264;29;20883;-75
2023/12/09 01:35:04;;;;;;;0.60;0.10;;;6.40;1.00;;;;;;4843937;29;20452;-75
2023/12/09 01:37:32;;;;;;;0.60;0.10;;;6.30;1.00;;;;;;4840572;29;20524;-74
2023/12/09 01:40:00;;;;;;;0.60;0.10;;;;;;;;;;4838802;29;20456;-74
2023/12/09 01:42:28;;;;;;;0.60;0.10;;;6.30;1.00;;;;;;4843169;29;20460;-75
2023/12/09 01:44:57;;;;;;;0.60;0.10;;;6.40;1.00;;;;;;4841536;29;20966;-75
2023/12/09 01:47:25;;;;;;;0.70;0.47;;;6.40;1.00;;;;;;4838447;29;20526;-75
2023/12/09 01:49:53;;;;;;;0.83;0.77;;;9.50;1.00;;;;;;4843414;29;20532;-75
2023/12/09 01:52:22;;;;;;;0.70;0.10;;;6.30;1.00;;;;;;4843611;29;20460;-75
2023/12/09 01:54:51;;;;;;;0.60;0.10;;;6.30;1.00;;;;;;4843980;29;20464;-76
2023/12/09 01:57:19;;;;;;;0.60;0.10;;;6.30;1.00;;;;;;4843168;29;20551;-76
2023/12/09 01:59:47;;;;;;;1.10;0.70;;;6.30;1.00;;;;;;4843149;29;20456;-76
2023/12/09 02:02:15;;;;;;;0.60;0.10;;;6.30;1.00;;;;;;4842683;29;20516;-75
2023/12/09 02:04:43;;;;;;;0.83;0.83;;;6.20;1.00;;;;;;4843929;29;20468;-76
2023/12/09 02:07:11;;;;;;;2.13;2.03;;;6.30;1.00;;;;;;4844103;29;20503;-75
2023/12/09 02:09:40;;;;;;;1.50;1.40;;;6.30;1.00;;;;;;4845025;29;20545;-76
2023/12/09 02:12:18;;;;;;;0.60;0.10;;;6.30;1.00;;;;;;4854574;29;20444;-75
2023/12/09 02:14:55;;;;;;;0.70;0.20;;;6.30;1.00;;;;;;4861989;29;20456;-76
2023/12/09 02:17:31;;;;;;;0.70;0.10;;;6.30;1.00;;;;;;4843561;29;20540;-76
2023/12/09 02:20:00;;;;;;;2.90;1.60;;;6.30;1.00;;;;;;4844008;29;20458;-76
2023/12/09 02:22:28;;;;;;;1.20;1.03;;;6.30;1.00;;;;;;4843420;29;20988;-76
2023/12/09 02:24:57;;;;;;;0.60;0.10;;;6.30;1.00;;;;;;4838456;29;20460;-74
2023/12/09 02:27:28;;;;;;;0.60;0.10;;;6.30;1.00;;;;;;4840966;29;20488;-74
2023/12/09 02:30:08;;;;;;;0.60;0.10;;;6.40;1.00;;;;;;4838423;29;20468;-74
2023/12/09 02:32:38;;;;;;;0.80;0.63;;;6.30;1.00;;;;;;4842968;29;20463;-74
2023/12/09 02:35:08;;;;;;;0.70;0.10;;;6.30;1.00;;;;;;4843295;29;20455;-75
2023/12/09 02:37:38;;;;;;;0.70;0.20;;;6.30;1.00;;;;;;4849572;29;20994;-75
2023/12/09 02:40:09;;;;;;;0.60;0.10;;;6.20;1.00;;;;;;4849900;29;20516;-74
2023/12/09 02:42:39;;;;;;;0.60;0.10;;;6.30;1.00;;;;;;4849369;29;20496;-74
2023/12/09 02:45:08;;;;;;;0.67;0.30;;;6.30;1.00;;;;;;4856556;29;20475;-75
2023/12/09 02:47:36;;;;;;;0.70;0.10;;;6.30;1.00;;;;;;4852485;29;21007;-74
2023/12/09 02:50:05;;;;;;;0.70;0.10;;;6.30;1.00;;;;;;4849024;29;20548;-75
2023/12/09 02:52:32;;;;;;;0.60;0.10;;;6.30;1.00;;;;;;4849072;29;20483;-74
2023/12/09 02:55:00;;;;;;;2.83;2.43;;;6.30;1.00;;;;;;4845586;29;20462;-77
2023/12/09 02:57:30;;;;;;;1.90;1.80;;;6.20;1.00;;;;;;4844100;29;20483;-75
2023/12/09 02:59:58;;;;;;;0.60;0.10;;;6.20;1.00;;;;;;4844427;29;20501;-74
2023/12/09 03:02:25;;;;;;;0.77;0.37;;;6.20;1.00;;;;;;4843157;29;20554;-74
2023/12/09 03:04:53;;;;;;;0.60;0.10;;;6.10;1.00;;;;;;4843806;29;20862;-74
2023/12/09 03:07:21;;;;;;;0.60;0.10;;;6.10;1.00;;;;;;4842319;29;20491;-74
2023/12/09 03:09:49;;;;;;;0.60;0.10;;;6.10;1.00;;;;;;4843629;29;20463;-75
2023/12/09 03:12:17;;;;;;;0.60;0.10;;;6.20;1.00;;;;;;4840493;29;20529;-75
2023/12/09 03:14:46;;;;;;;0.60;0.10;;;6.20;1.00;;;;;;4838995;29;20482;-75
2023/12/09 03:17:14;;;;;;;0.60;0.10;;;6.20;1.00;;;;;;4843059;29;21056;-75
2023/12/09 03:19:42;;;;;;;0.60;0.10;;;6.10;1.00;;;;;;4843145;29;20479;-75
2023/12/09 03:22:10;;;;;;;0.60;0.10;;;6.10;1.00;;;;;;4837336;29;20457;-75
2023/12/09 03:24:38;;;;;;;1.63;1.40;;;6.10;1.00;;;;;;4842777;29;20551;-75
2023/12/09 03:27:05;;;;;;;1.63;1.53;;;6.10;1.00;;;;;;4843285;29;20566;-75
2023/12/09 03:29:33;;;;;;;0.70;0.10;;;6.10;1.00;;;;;;4842318;29;20548;-75
2023/12/09 03:32:03;;;;;;;1.27;1.03;;;6.20;1.00;;;;;;4842563;29;20562;-75
2023/12/09 03:34:30;;;;;;;0.60;0.20;;;6.10;1.00;;;;;;4842111;29;20872;-75
2023/12/09 03:36:59;;;;;;;2.30;2.20;;;6.20;1.00;;;;;;4842412;29;20472;-75
2023/12/09 03:39:26;;;;;;;0.60;0.10;;;6.20;1.00;;;;;;4842208;29;20452;-75
2023/12/09 03:41:54;;;;;;;0.60;0.10;;;6.20;1.00;;;;;;4842143;29;20999;-75
2023/12/09 03:44:22;;;;;;;16.80;16.00;;;6.20;1.00;;;;;;4842039;29;20528;-75
2023/12/09 03:46:50;;;;;;;0.60;0.10;;;6.10;1.00;;;;;;4842205;29;20551;-75
2023/12/09 03:49:19;;;;;;;0.60;0.10;;;6.10;1.00;;;;;;4837968;29;20519;-75
2023/12/09 03:51:47;;;;;;;0.60;0.10;;;6.20;1.00;;;;;;4838788;29;20824;-75
2023/12/09 03:54:15;;;;;;;0.60;0.10;;;6.20;1.00;;;;;;4842045;29;20480;-75
2023/12/09 03:56:44;;;;;;;1.83;1.73;;;6.30;1.00;;;;;;4841986;29;20471;-75
2023/12/09 03:59:12;;;;;;;0.70;0.50;;;6.20;1.00;;;;;;4842399;29;20480;-75
2023/12/09 04:01:47;;;;;;;0.60;0.20;;;6.30;1.00;;;;;;4842220;29;20551;-75
2023/12/09 04:04:15;;;;;;;0.60;0.10;;;6.30;1.00;;;;;;4841635;29;20444;-74
2023/12/09 04:06:44;;;;;;;2.00;1.90;;;6.20;1.00;;;;;;4841791;29;20475;-75
2023/12/09 04:09:14;;;;;;;0.60;0.20;;;6.30;1.00;;;;;;4840856;29;20512;-75
2023/12/09 04:11:43;;;;;;;0.60;0.10;;;6.30;1.00;;;;;;4841582;29;20973;-75
2023/12/09 04:14:11;;;;;;;0.60;0.10;;;6.30;1.00;;;;;;4841602;29;20461;-75
2023/12/09 04:16:39;;;;;;;0.60;0.10;;;6.30;1.00;;;;;;4841526;29;20924;-75
2023/12/09 04:19:06;;;;;;;74.50;27.90;;;6.40;1.00;;;;;;4841415;29;20478;-75
2023/12/09 04:21:37;;;;;;;0.60;0.10;;;6.40;1.00;;;;;;4841646;29;21217;-75
2023/12/09 04:24:07;;;;;;;0.60;0.10;;;6.40;1.00;;;;;;4842415;29;20495;-75
2023/12/09 04:26:35;;;;;;;0.60;0.10;;;6.30;1.00;;;;;;4844907;29;20578;-75
2023/12/09 04:29:06;;;;;;;0.60;0.10;;;6.20;1.00;;;;;;4837370;29;20492;-75
2023/12/09 04:31:34;;;;;;;0.60;0.20;;;6.20;1.00;;;;;;4844788;29;20834;-75
2023/12/09 04:34:02;;;;;;;0.60;0.10;;;6.20;1.00;;;;;;4845334;29;20460;-75
2023/12/09 04:36:30;;;;;;;0.70;0.40;;;6.20;1.00;;;;;;4845323;29;20555;-75
2023/12/09 04:38:58;;;;;;;0.60;0.10;;;6.20;1.00;;;;;;4844911;29;20950;-75
2023/12/09 04:41:27;;;;;;;0.60;0.20;;;6.20;1.00;;;;;;4845277;29;20566;-76
2023/12/09 04:43:55;;;;;;;0.60;0.10;;;6.30;1.00;;;;;;4844156;29;20452;-75
2023/12/09 04:46:23;;;;;;;0.60;0.20;;;6.30;1.00;;;;;;4845553;29;20458;-75
2023/12/09 04:48:51;;;;;;;0.60;0.10;;;6.30;1.00;;;;;;4837803;29;20574;-75
2023/12/09 04:51:19;;;;;;;0.70;0.40;;;6.30;1.00;;;;;;4844278;29;20452;-75
2023/12/09 04:53:47;;;;;;;0.60;0.10;;;6.40;1.00;;;;;;4845057;29;20462;-75
2023/12/09 04:56:15;;;;;;;0.70;0.20;;;6.30;1.00;;;;;;4843822;29;20478;-75
2023/12/09 04:58:45;;;;;;;0.60;0.10;;;6.40;1.00;;;;;;4844502;29;20543;-75
2023/12/09 05:01:12;;;;;;;0.60;0.10;;;6.30;1.00;;;;;;4844587;29;20487;-75
2023/12/09 05:03:40;;;;;;;0.60;0.10;;;6.40;1.00;;;;;;4844245;29;20952;-75
2023/12/09 05:06:09;;;;;;;0.60;0.10;;;;;;;;;;4844158;29;20448;-75
2023/12/09 05:08:39;;;;;;;0.60;0.10;;;6.40;1.00;;;;;;4858366;29;20503;-75
2023/12/09 05:11:07;;;;;;;0.60;0.10;;;6.40;1.00;;;;;;4863842;29;20518;-74
2023/12/09 05:13:35;;;;;;;1.10;0.97;;;6.40;1.00;;;;;;4855920;29;20535;-75
2023/12/09 05:16:05;;;;;;;1.13;1.03;;;6.50;1.00;;;;;;4845241;29;20543;-75
2023/12/09 05:18:33;;;;;;;0.60;0.20;;;6.50;1.00;;;;;;4843962;29;20817;-76
2023/12/09 05:21:04;;;;;;;0.60;0.10;;;6.50;1.00;;;;;;4844052;29;20658;-75
2023/12/09 05:23:33;;;;;;;0.60;0.10;;;6.50;1.00;;;;;;4843827;29;20448;-75
2023/12/09 05:26:01;;;;;;;0.60;0.10;;;6.50;1.00;;;;;;4843773;29;20459;-75
2023/12/09 05:28:30;;;;;;;0.60;0.10;;;6.60;1.00;;;;;;4843219;29;20503;-75
2023/12/09 05:30:58;;;;;;;0.60;0.20;;;;;;;;;;4843588;29;20467;-75
2023/12/09 05:33:27;;;;;;;0.60;0.10;;;6.60;1.00;;;;;;4840565;29;20470;-75
2023/12/09 05:35:55;;;;;;;0.60;0.10;;;6.60;1.00;;;;;;4835891;29;21023;-75
2023/12/09 05:38:23;;;;;;;0.60;0.10;;;6.60;1.00;;;;;;4843772;29;20567;-75
2023/12/09 05:40:51;;;;;;;0.60;0.10;;;6.60;1.00;;;;;;4843865;29;20544;-75
2023/12/09 05:43:19;;;;;;;0.60;0.10;;;6.60;1.00;;;;;;4843572;29;20642;-75
2023/12/09 05:45:47;;;;;;;0.60;0.10;;;6.60;1.00;;;;;;4844698;29;20462;-75
2023/12/09 05:48:15;;;;;;;1.70;1.60;;;6.60;1.00;;;;;;4844355;29;20488;-75
2023/12/09 05:50:44;;;;;;;0.60;0.10;;;6.60;1.00;;;;;;4843614;29;20510;-75
2023/12/09 05:53:12;;;;;;;0.60;0.23;;;6.60;1.00;;;;;;4843137;29;20567;-75
2023/12/09 05:55:41;;;;;;;0.60;0.10;;;6.70;1.00;;;;;;4843259;29;20460;-75
2023/12/09 05:58:09;;;;;;;0.60;0.10;;;6.70;1.00;;;;;;4842472;29;20480;-75
2023/12/09 06:00:36;;;;;;;0.60;0.10;;;6.60;1.00;;;;;;4842321;29;20510;-76
2023/12/09 06:03:05;;;;;;;0.70;0.20;;;6.60;1.00;;;;;;4842490;29;20455;-75
2023/12/09 06:05:32;;;;;;;0.80;0.63;;;6.60;1.00;;;;;;4842644;29;20459;-75
2023/12/09 06:08:02;;;;;;;1.47;0.60;;;6.60;1.00;;;;;;4843101;29;20564;-75
2023/12/09 06:10:30;;;;;;;0.93;0.83;;;6.60;1.00;;;;;;4843230;29;20502;-75
2023/12/09 06:12:58;;;;;;;0.60;0.10;;;6.60;1.00;;;;;;4841388;29;20448;-75
2023/12/09 06:15:26;;;;;;;0.60;0.30;;;6.60;1.00;;;;;;4842750;29;20475;-75
2023/12/09 06:17:53;;;;;;;0.60;0.10;;;6.60;1.00;;;;;;4841827;29;20552;-76
2023/12/09 06:20:21;;;;;;;0.60;0.13;;;6.60;1.00;;;;;;4842642;29;20477;-75
2023/12/09 06:22:49;;;;;;;0.60;0.10;;;6.50;1.00;;;;;;4842570;29;21239;-75
2023/12/09 06:25:19;;;;;;;0.67;0.37;;;;;;;;;;4840565;29;20532;-75
2023/12/09 06:27:47;;;;;;;0.60;0.10;;;6.50;1.00;;;;;;4843634;29;20858;-76
2023/12/09 06:30:15;;;;;;;0.60;0.10;;;6.50;1.00;;;;;;4843685;29;20544;-75
2023/12/09 06:32:43;;;;;;;14.83;9.43;;;6.50;1.00;;;;;;4842374;29;20597;-75
2023/12/09 06:35:11;;;;;;;0.60;0.10;;;6.50;1.00;;;;;;4842281;29;20459;-75
2023/12/09 06:37:39;;;;;;;0.60;0.10;;;6.50;1.00;;;;;;4841454;29;20563;-75
2023/12/09 06:40:09;;;;;;;0.60;0.10;;;6.50;1.00;;;;;;4842109;29;20440;-75
2023/12/09 06:42:38;;;;;;;0.60;0.10;;;6.50;1.00;;;;;;4839683;29;21228;-75
2023/12/09 06:45:07;;;;;;;0.60;0.10;;;6.50;1.00;;;;;;4841460;29;20479;-75
2023/12/09 06:47:35;;;;;;;0.60;0.10;;;6.60;1.00;;;;;;4838818;29;20559;-75
2023/12/09 06:50:03;;;;;;;0.60;0.10;;;6.60;1.00;;;;;;4840999;29;20487;-75
2023/12/09 06:52:31;;;;;;;0.60;0.10;;;6.60;1.00;;;;;;4841517;29;20460;-75
2023/12/09 06:54:59;;;;;;;0.60;0.10;;;6.50;1.00;;;;;;4840012;29;20513;-75
2023/12/09 06:57:27;;;;;;;0.60;0.10;;;6.50;1.00;;;;;;4841159;29;20491;-75
2023/12/09 06:59:56;;;;;;;0.60;0.10;;;6.50;1.00;;;;;;4841398;29;20444;-75
2023/12/09 07:02:24;;;;;;;0.60;0.20;;;6.50;1.00;;;;;;4840297;29;20468;-75
2023/12/09 07:04:58;;;;;;;0.60;0.20;;;6.60;1.00;;;;;;4839885;29;20532;-75
2023/12/09 07:07:26;;;;;;;1.57;0.73;;;6.60;1.00;;;;;;4844372;29;20540;-76
2023/12/09 07:09:55;;;;;;;0.60;0.10;;;6.60;1.00;;;;;;4840430;29;20927;-76
2023/12/09 07:12:23;;;;;;;0.60;0.20;;;6.60;1.00;;;;;;4840175;29;20536;-75
2023/12/09 07:14:52;;;;;;;0.60;0.10;;;3.80;1.00;;;;;;4840265;29;20540;-75
2023/12/09 07:17:21;;;;;;;0.60;0.10;;;6.60;1.00;;;;;;4842094;29;20526;-75
2023/12/09 07:19:51;;;;;;;0.60;0.10;;;6.60;1.00;;;;;;4854078;29;20490;-75
2023/12/09 07:22:19;;;;;;;1.53;1.43;;;6.60;1.00;;;;;;4853579;29;20455;-76
2023/12/09 07:24:47;;;;;;;0.60;0.10;;;6.60;1.00;;;;;;4841545;29;20487;-75
2023/12/09 07:27:15;;;;;;;0.60;0.10;;;6.60;1.00;;;;;;4841507;29;20472;-75
2023/12/09 07:29:43;;;;;;;0.67;0.30;;;6.60;1.00;;;;;;4841214;29;20995;-75
2023/12/09 07:32:12;;;;;;;0.60;0.10;;;6.60;1.00;;;;;;4841546;29;20558;-75
2023/12/09 07:34:41;;;;;;;0.73;0.10;;;6.60;1.00;;;;;;4841776;29;21068;-75
2023/12/09 07:37:11;;;;;;;0.60;0.10;;;6.70;1.00;;;;;;4841161;29;20479;-75
2023/12/09 07:39:39;;;;;;;0.60;0.10;;;6.70;1.00;;;;;;4840908;29;20467;-75
2023/12/09 07:42:07;;;;;;;4.33;0.93;;;6.70;1.00;;;;;;4841019;29;20460;-77
2023/12/09 07:44:35;;;;;;;0.60;0.20;;;6.80;1.00;;;;;;4834096;29;20468;-74
2023/12/09 07:47:04;;;;;;;0.60;0.10;;;6.80;1.00;;;;;;4836821;29;20575;-76
2023/12/09 07:49:32;;;;;;;0.60;0.10;;;6.80;1.00;;;;;;4838700;29;20464;-76
2023/12/09 07:52:01;;;;;;;0.60;0.20;;;6.80;1.00;;;;;;4839246;29;20466;-76
2023/12/09 07:54:29;;;;;;;0.60;0.10;;;6.80;1.00;;;;;;4840914;29;21026;-76
2023/12/09 07:56:58;;;;;;;0.60;0.10;;;6.90;1.00;;;;;;4848506;29;20591;-75
2023/12/09 07:59:26;;;;;;;1.73;1.63;;;6.90;1.00;;;;;;4848683;29;20511;-76
2023/12/09 08:01:54;;;;;;;0.60;0.10;;;6.80;1.00;;;;;;4849936;29;20448;-75
2023/12/09 08:04:22;;;;;;;0.60;0.10;;;6.80;1.00;;;;;;4860056;29;20456;-75
2023/12/09 08:06:52;;;;;;;0.60;0.20;;;6.80;1.00;;;;;;4868130;29;20480;-77
2023/12/09 08:09:21;;;;;;;0.60;0.10;;;6.80;1.00;;;;;;4862942;29;20487;-75
2023/12/09 08:11:49;;;;;;;0.60;0.10;;;6.80;1.00;;;;;;4854556;29;20548;-76
2023/12/09 08:14:20;;;;;;;1.73;1.23;;;6.80;1.00;;;;;;4861975;29;20483;-75
2023/12/09 08:16:48;;;;;;;0.60;0.20;;;6.80;1.00;;;;;;4850742;29;20472;-76
2023/12/09 08:19:16;;;;;;;0.60;0.10;;;6.80;1.00;;;;;;4847505;29;20543;-75
2023/12/09 08:21:44;;;;;;;0.60;0.10;;;6.80;1.00;;;;;;4847759;29;20452;-75
2023/12/09 08:24:12;;;;;;;0.60;0.10;;;6.90;1.00;;;;;;4846000;29;20456;-76
2023/12/09 08:26:42;;;;;;;0.60;0.10;;;6.90;1.00;;;;;;4846555;29;20468;-76
2023/12/09 08:29:11;;;;;;;0.60;0.10;;;;;;;;;;4846386;29;20462;-74
2023/12/09 08:31:39;;;;;;;0.60;0.10;;;7.00;1.00;;;;;;4845243;29;20574;-75
2023/12/09 08:34:07;;;;;;;0.60;0.10;;;7.00;1.00;;;;;;4844663;29;20490;-75
2023/12/09 08:36:35;;;;;;;0.70;0.10;;;7.00;1.00;;;;;;4844626;29;20495;-75
2023/12/09 08:39:03;;;;;;;0.60;0.10;;;7.00;1.00;;;;;;4844387;29;20456;-75
2023/12/09 08:41:31;;;;;;;0.60;0.10;;;7.00;1.00;;;;;;4843236;29;20451;-75
2023/12/09 08:44:00;;;;;;;0.70;0.10;;;7.00;1.00;;;;;;4844582;29;20472;-74
2023/12/09 08:46:28;;;;;;;0.70;0.10;;;7.10;1.00;;;;;;4845164;29;20879;-74
2023/12/09 08:48:56;;;;;;;0.93;0.83;;;7.10;1.00;;;;;;4844017;29;20472;-75
2023/12/09 08:51:25;;;;;;;0.70;0.10;;;7.10;1.00;;;;;;4844457;29;20494;-74
2023/12/09 08:53:52;;;;;;;0.70;0.10;;;7.10;1.00;;;;;;4845235;29;20963;-74
2023/12/09 08:56:20;;;;;;;0.70;0.20;;;7.10;1.00;;;;;;4843984;29;20535;-75
2023/12/09 08:58:48;;;;;;;0.70;0.10;;;7.10;1.00;;;;;;4844219;29;20460;-75
2023/12/09 09:01:17;;;;;;;0.70;0.20;;;7.10;1.00;;;;;;4844191;29;20885;-75
2023/12/09 09:03:45;;;;;;;0.70;0.10;;;7.10;1.00;;;;;;4842384;29;20559;-74
2023/12/09 09:06:13;;;;;;;0.73;0.17;;;7.10;1.00;;;;;;4844246;29;20460;-74
2023/12/09 09:08:43;;;;;;;0.50;0.10;;;7.20;1.00;;;;;;4844718;29;20956;-74
2023/12/09 09:11:12;;;;;;;0.60;0.10;;;7.20;1.00;;;;;;4848914;29;20519;-74
2023/12/09 09:13:40;;;;;;;0.60;0.10;;;7.30;1.00;;;;;;4846602;29;20547;-74
2023/12/09 09:16:08;;;;;;;0.60;0.10;;;7.20;1.00;;;;;;4844561;29;20616;-74
2023/12/09 09:18:37;;;;;;;0.60;0.20;;;7.30;1.00;;;;;;4843234;29;20444;-75
2023/12/09 09:21:05;;;;;;;0.60;0.10;;;7.30;1.00;;;;;;4842726;29;20464;-74
2023/12/09 09:23:34;;;;;;;0.60;0.10;;;7.40;1.00;;;;;;4844115;29;20467;-75
2023/12/09 09:26:01;;;;;;;0.60;0.10;;;7.50;1.00;;;;;;4844066;29;20453;-75
2023/12/09 09:28:29;;;;;;;0.60;0.10;;;7.40;1.00;;;;;;4842755;29;20498;-73
2023/12/09 09:30:57;;;;;;;0.60;0.10;;;7.50;1.00;;;;;;4833917;29;20491;-77
2023/12/09 09:33:26;;;;;;;0.70;0.10;;;7.60;1.00;;;;;;4841167;29;20548;-75
2023/12/09 09:35:59;;;;;;;0.60;0.10;;;7.60;1.00;;;;;;4842655;29;20460;-76
2023/12/09 09:38:27;;;;;;;0.60;0.10;;;7.60;1.00;;;;;;4843089;29;20468;-76
2023/12/09 09:40:56;;;;;;;0.50;0.10;;;7.70;1.00;;;;;;4843326;29;20479;-75
2023/12/09 09:43:29;;;;;;;0.50;0.10;;;7.70;1.00;;;;;;4839592;29;20467;-75
2023/12/09 09:45:57;;;;;;;0.50;0.10;;;7.70;1.00;;;;;;4839121;29;20835;-76
2023/12/09 09:48:27;;;;;;;0.50;0.10;;;7.70;1.00;;;;;;4841414;29;20484;-76
2023/12/09 09:50:57;;;;;;;0.50;0.10;;;7.80;1.00;;;;;;4838380;29;20476;-77
2023/12/09 09:53:33;;;;;;;0.50;0.10;;;7.80;1.00;;;;;;4840989;29;20532;-77
2023/12/09 09:56:02;;;;;;;0.50;0.10;;;7.80;1.00;;;;;;4841138;29;20479;-76
2023/12/09 09:58:32;;;;;;;0.50;0.10;;;7.80;1.00;;;;;;4841573;29;20555;-75
2023/12/09 10:01:00;;;;;;;0.50;0.10;;;7.80;1.00;;;;;;4840971;29;20468;-76
2023/12/09 10:03:28;;;;;;;0.50;0.10;;;7.90;1.00;;;;;;4840102;29;20452;-76
2023/12/09 10:05:57;;;;;;;0.50;0.10;;;7.80;1.00;;;;;;4841275;29;20803;-76
2023/12/09 10:08:27;;;;;;;0.50;0.10;;;7.90;1.00;;;;;;4842507;29;21058;-76
2023/12/09 10:10:55;;;;;;;1.03;0.93;;;7.90;1.00;;;;;;4843026;29;20874;-77
2023/12/09 10:13:23;;;;;;;0.50;0.10;;;7.90;1.00;;;;;;4841602;29;20499;-75
2023/12/09 10:15:51;;;;;;;0.50;0.10;;;8.00;1.00;;;;;;4841135;29;21039;-75
2023/12/09 10:18:21;;;;;;;0.50;0.10;;;8.00;1.00;;;;;;4842366;29;20532;-75
2023/12/09 10:20:50;;;;;;;0.50;0.20;;;8.10;1.00;;;;;;4843105;29;20463;-76
2023/12/09 10:23:18;;;;;;;0.50;0.20;;;8.10;1.00;;;;;;4841645;29;20463;-75
2023/12/09 10:25:48;;;;;;;0.50;0.10;;;8.10;1.00;;;;;;4842502;29;20559;-75
2023/12/09 10:28:16;;;;;;;0.50;0.10;;;8.10;1.00;;;;;;4843214;29;20472;-75
2023/12/09 10:30:46;;;;;;;0.50;0.10;;;8.10;1.00;;;;;;4843380;29;20470;-77
2023/12/09 10:33:14;;;;;;;0.50;0.10;;;;;;;;;;4843419;29;20498;-75
2023/12/09 10:35:42;;;;;;;0.50;0.10;;;8.20;1.00;;;;;;4841984;29;20456;-77
2023/12/09 10:38:10;;;;;;;0.50;0.10;;;8.20;1.00;;;;;;4841181;29;20487;-77
2023/12/09 10:40:38;;;;;;;7.87;7.10;;;8.20;1.00;;;;;;4841886;29;20534;-76
2023/12/09 10:43:07;;;;;;;0.50;0.10;;;8.30;1.00;;;;;;4841118;29;20797;-75
2023/12/09 10:45:35;;;;;;;0.50;0.10;;;8.20;1.00;;;;;;4839135;29;20456;-76
2023/12/09 10:48:03;;;;;;;0.50;0.10;;;8.30;1.00;;;;;;4841043;29;20503;-76
2023/12/09 10:50:32;;;;;;;0.60;0.40;;;8.20;1.00;;;;;;4841535;29;20445;-76
2023/12/09 10:53:00;;;;;;;1.17;0.90;;;8.30;1.00;;;;;;4841183;29;20854;-76
2023/12/09 10:55:28;;;;;;;2.00;1.80;;;8.40;1.00;;;;;;4842522;29;20464;-76
2023/12/09 10:57:58;;;;;;;0.50;0.10;;;8.40;1.00;;;;;;4844263;29;20480;-76
2023/12/09 11:00:30;;;;;;;0.50;0.10;;;8.50;1.00;;;;;;4859924;29;20555;-76
2023/12/09 11:02:59;;;;;;;0.50;0.10;;;8.60;1.00;;;;;;4842824;29;20458;-76
2023/12/09 11:05:28;;;;;;;0.50;0.10;;;8.70;1.00;;;;;;4841179;29;20458;-76
2023/12/09 11:07:57;;;;;;;0.50;0.10;;;8.70;1.00;;;;;;4855930;29;20563;-76
2023/12/09 11:10:25;;;;;;;0.50;0.20;;;8.70;1.00;;;;;;4855778;29;21025;-76
2023/12/09 11:12:53;;;;;;;0.50;0.10;;;8.80;1.00;;;;;;4852891;29;20918;-76
2023/12/09 11:15:29;;;;;;;0.50;0.10;;;;;;;;;;4844703;29;20484;-77
2023/12/09 11:18:07;;;;;;;0.50;0.30;;;8.90;1.00;;;;;;4843055;29;20472;-77
2023/12/09 11:20:39;;;;;;;0.50;0.10;;;8.90;1.00;;;;;;4844091;29;20453;-76
2023/12/09 11:23:10;;;;;;;0.50;0.10;;;9.00;1.00;;;;;;4842638;29;20571;-76
2023/12/09 11:25:40;;;;;;;0.60;0.50;;;9.00;1.00;;;;;;4841612;29;20460;-76
2023/12/09 11:28:11;;;;;;;0.50;0.10;;;9.10;1.00;;;;;;4841460;29;20473;-77
2023/12/09 11:30:41;;;;;;;0.50;0.10;;;9.20;1.00;;;;;;4841823;29;20531;-77
2023/12/09 11:33:11;;;;;;;0.50;0.10;;;9.30;1.00;;;;;;4841346;29;20479;-76
2023/12/09 11:35:40;;;;;;;0.50;0.20;;;9.30;1.00;;;;;;4841675;29;20460;-77
2023/12/09 11:38:10;;;;;;;0.50;0.10;;;9.30;1.00;;;;;;4840844;29;20556;-76
2023/12/09 11:40:38;;;;;;;0.77;0.63;;;9.30;1.00;;;;;;4842009;29;20992;-75
2023/12/09 11:43:08;;;;;;;0.50;0.10;;;9.30;1.00;;;;;;4841844;29;20529;-76
2023/12/09 11:45:36;;;;;;;0.50;0.10;;;9.40;1.00;;;;;;4843087;29;20536;-77
2023/12/09 11:48:05;;;;;;;0.50;0.10;;;9.40;1.00;;;;;;4842404;29;20472;-75
2023/12/09 11:50:35;;;;;;;0.50;0.20;;;;;;;;;;4841557;29;20460;-76
2023/12/09 11:53:03;;;;;;;0.50;0.10;;;9.50;1.00;;;;;;4839706;29;20572;-76
2023/12/09 11:55:31;;;;;;;4.33;0.60;;;9.60;1.00;;;;;;4841324;29;20491;-76
2023/12/09 11:57:59;;;;;;;0.50;0.10;;;9.60;1.00;;;;;;4840209;29;20537;-76
2023/12/09 12:00:27;;;;;;;0.50;0.10;;;9.60;1.00;;;;;;4841128;29;20532;-76
2023/12/09 12:02:55;;;;;;;0.50;0.10;;;9.60;1.00;;;;;;4841567;29;20446;-76
2023/12/09 12:05:23;;;;;;;0.50;0.23;;;9.60;99.90;;;;;;4840963;29;20501;-76
2023/12/09 12:07:52;;;;;;;0.77;0.77;;;9.60;99.90;;;;;;4841895;29;20471;-76
2023/12/09 12:10:20;;;;;;;0.50;0.10;;;9.60;99.90;;;;;;4840999;29;20984;-76
2023/12/09 12:12:48;;;;;;;0.60;0.30;;;9.60;99.90;;;;;;4843926;29;20519;-75
2023/12/09 12:15:16;;;;;;;0.50;0.10;;;9.60;99.90;;;;;;4845414;29;20487;-77
2023/12/09 12:17:44;;;;;;;0.50;0.10;;;9.60;99.90;;;;;;4845551;29;20487;-76
2023/12/09 12:20:13;;;;;;;0.60;0.27;;;9.60;99.90;;;;;;4844597;29;20548;-76
2023/12/09 12:22:41;;;;;;;0.50;0.20;;;;;;;;;;4841564;29;20447;-75
2023/12/09 12:25:11;;;;;;;0.50;0.10;;;9.60;99.90;;;;;;4841701;29;20483;-75
2023/12/09 12:27:44;;;;;;;0.50;0.10;;;9.70;99.90;;;;;;4843883;29;20498;-75
2023/12/09 12:30:14;;;;;;;0.50;0.20;;;9.50;99.90;;;;;;4844878;29;20466;-76
2023/12/09 12:32:42;;;;;;;0.50;0.10;;;9.60;99.90;;;;;;4845303;29;20489;-75
2023/12/09 12:35:11;;;;;;;0.50;0.10;;;9.60;99.90;;;;;;4844225;29;20933;-76
2023/12/09 12:37:40;;;;;;;0.50;0.10;;;9.60;99.90;;;;;;4841891;29;20511;-76
2023/12/09 12:40:11;;;;;;;1.33;0.73;;;9.60;99.90;;;;;;4840859;29;20463;-76
2023/12/09 12:42:39;;;;;;;1.00;0.67;;;9.50;99.90;;;;;;4840901;29;20481;-76
2023/12/09 12:45:18;;;;;;;0.50;0.10;;;9.50;99.90;;;;;;4842061;29;20475;-75
2023/12/09 12:47:47;;;;;;;0.50;0.10;;;9.50;99.90;;;;;;4844737;29;20479;-76
2023/12/09 12:50:16;;;;;;;0.50;0.10;;;9.50;99.90;;;;;;4844617;29;20457;-76
2023/12/09 12:52:45;;;;;;;0.60;0.10;;;9.50;99.90;;;;;;4840870;29;20519;-75
2023/12/09 12:55:15;;;;;;;2.00;1.13;;;9.50;99.90;;;;;;4844707;29;20460;-75
2023/12/09 12:57:43;;;;;;;0.60;0.10;;;9.50;99.90;;;;;;4844841;29;20471;-75
2023/12/09 13:00:14;;;;;;;0.60;0.20;;;9.60;99.90;;;;;;4846507;29;20457;-75
2023/12/09 13:02:42;;;;;;;0.50;0.10;;;9.60;99.90;;;;;;4845974;29;20543;-76
2023/12/09 13:05:10;;;;;;;0.60;0.20;;;9.60;99.90;;;;;;4844919;29;20457;-75
2023/12/09 13:07:38;;;;;;;0.53;0.10;;;9.60;99.90;;;;;;4844438;29;20619;-75
2023/12/09 13:10:07;;;;;;;0.60;0.10;;;9.60;99.90;;;;;;4844065;29;20508;-76
2023/12/09 13:12:37;;;;;;;0.60;0.10;;;9.60;99.90;;;;;;4842504;29;21016;-76
2023/12/09 13:15:06;;;;;;;0.60;0.10;;;9.50;99.90;;;;;;4842361;29;21526;-76
2023/12/09 13:17:34;;;;;;;0.50;0.10;;;9.60;99.90;;;;;;4846573;29;20512;-76